sensor_id;sensor_type;location;lat;lon;timestamp;temperature;humidity
20400;DHT22;10359;53.596;22.520;2022-11-12T00:01:35;11.20;1.00
20400;DHT22;10359;53.596;22.520;2022-11-12T00:04:06;11.30;1.00
20400;DHT22;10359;53.596;22.520;2022-11-12T00:06:35;11.30;1.00
20400;DHT22;10359;53.596;22.520;2022-11-12T00:09:04;11.20;1.00
20400;DHT22;10359;53.596;22.520;2022-11-12T00:11:33;11.20;1.00
20400;DHT22;10359;53.596;22.520;2022-11-12T00:14:02;11.20;1.00
20400;DHT22;10359;53.596;22.520;2022-11-12T00:16:31;11.30;1.00
20400;DHT22;10359;53.596;22.520;2022-11-12T00:19:00;11.30;1.00
20400;DHT22;10359;53.596;22.520;2022-11-12T00:21:31;11.30;1.00
20400;DHT22;10359;53.596;22.520;2022-11-12T00:24:00;11.30;1.00
20400;DHT22;10359;53.596;22.520;2022-11-12T00:26:28;11.30;1.00
20400;DHT22;10359;53.596;22.520;2022-11-12T00:28:58;11.30;1.00
20400;DHT22;10359;53.596;22.520;2022-11-12T00:31:27;11.20;1.00
20400;DHT22;10359;53.596;22.520;2022-11-12T00:33:55;11.30;1.00
20400;DHT22;10359;53.596;22.520;2022-11-12T00:36:24;11.30;1.00
20400;DHT22;10359;53.596;22.520;2022-11-12T00:38:55;11.20;1.00
20400;DHT22;10359;53.596;22.520;2022-11-12T00:41:23;11.20;1.00
20400;DHT22;10359;53.596;22.520;2022-11-12T00:43:52;11.30;1.00
20400;DHT22;10359;53.596;22.520;2022-11-12T00:46:21;11.30;1.00
20400;DHT22;10359;53.596;22.520;2022-11-12T00:48:50;11.20;1.00
20400;DHT22;10359;53.596;22.520;2022-11-12T00:51:19;11.30;1.00
20400;DHT22;10359;53.596;22.520;2022-11-12T00:53:48;11.40;1.00
20400;DHT22;10359;53.596;22.520;2022-11-12T00:56:19;11.30;1.00
20400;DHT22;10359;53.596;22.520;2022-11-12T00:58:47;11.40;1.00
20400;DHT22;10359;53.596;22.520;2022-11-12T01:01:17;11.30;1.00
20400;DHT22;10359;53.596;22.520;2022-11-12T01:03:46;11.40;1.00
20400;DHT22;10359;53.596;22.520;2022-11-12T01:06:16;11.30;1.00
20400;DHT22;10359;53.596;22.520;2022-11-12T01:08:46;11.30;1.00
20400;DHT22;10359;53.596;22.520;2022-11-12T01:11:19;11.30;1.00
20400;DHT22;10359;53.596;22.520;2022-11-12T01:13:53;11.30;1.00
20400;DHT22;10359;53.596;22.520;2022-11-12T01:16:24;11.40;1.00
20400;DHT22;10359;53.596;22.520;2022-11-12T01:18:54;11.40;1.00
20400;DHT22;10359;53.596;22.520;2022-11-12T01:21:25;11.40;1.00
20400;DHT22;10359;53.596;22.520;2022-11-12T01:23:56;11.40;1.00
20400;DHT22;10359;53.596;22.520;2022-11-12T01:26:27;11.40;1.00
20400;DHT22;10359;53.596;22.520;2022-11-12T01:28:56;11.30;1.00
20400;DHT22;10359;53.596;22.520;2022-11-12T01:31:27;11.40;1.00
20400;DHT22;10359;53.596;22.520;2022-11-12T01:33:57;11.40;1.00
20400;DHT22;10359;53.596;22.520;2022-11-12T01:36:30;11.30;1.00
20400;DHT22;10359;53.596;22.520;2022-11-12T01:38:59;11.40;1.00
20400;DHT22;10359;53.596;22.520;2022-11-12T01:41:31;11.30;1.00
20400;DHT22;10359;53.596;22.520;2022-11-12T01:44:09;11.40;1.00
20400;DHT22;10359;53.596;22.520;2022-11-12T01:46:46;11.40;1.00
20400;DHT22;10359;53.596;22.520;2022-11-12T01:49:22;11.40;1.00
20400;DHT22;10359;53.596;22.520;2022-11-12T01:51:56;11.40;1.00
20400;DHT22;10359;53.596;22.520;2022-11-12T01:54:27;11.40;1.00
20400;DHT22;10359;53.596;22.520;2022-11-12T01:56:58;11.40;1.00
20400;DHT22;10359;53.596;22.520;2022-11-12T01:59:31;11.30;1.00
20400;DHT22;10359;53.596;22.520;2022-11-12T02:02:02;11.40;1.00
20400;DHT22;10359;53.596;22.520;2022-11-12T02:04:32;11.40;1.00
20400;DHT22;10359;53.596;22.520;2022-11-12T02:07:02;11.40;1.00
20400;DHT22;10359;53.596;22.520;2022-11-12T02:09:33;11.30;1.00
20400;DHT22;10359;53.596;22.520;2022-11-12T02:14:58;11.40;1.00
20400;DHT22;10359;53.596;22.520;2022-11-12T02:17:27;11.30;1.00
20400;DHT22;10359;53.596;22.520;2022-11-12T02:19:58;11.40;1.00
20400;DHT22;10359;53.596;22.520;2022-11-12T02:22:31;11.30;1.00
20400;DHT22;10359;53.596;22.520;2022-11-12T02:25:01;11.40;1.00
20400;DHT22;10359;53.596;22.520;2022-11-12T02:27:30;11.40;1.00
20400;DHT22;10359;53.596;22.520;2022-11-12T02:30:01;11.30;1.00
20400;DHT22;10359;53.596;22.520;2022-11-12T02:32:30;11.40;1.00
20400;DHT22;10359;53.596;22.520;2022-11-12T02:34:59;11.40;1.00
20400;DHT22;10359;53.596;22.520;2022-11-12T02:37:28;11.40;1.00
20400;DHT22;10359;53.596;22.520;2022-11-12T02:39:59;11.50;1.00
20400;DHT22;10359;53.596;22.520;2022-11-12T02:42:29;11.40;1.00
20400;DHT22;10359;53.596;22.520;2022-11-12T02:44:59;11.40;1.00
20400;DHT22;10359;53.596;22.520;2022-11-12T02:47:29;11.30;1.00
20400;DHT22;10359;53.596;22.520;2022-11-12T02:49:58;11.30;1.00
20400;DHT22;10359;53.596;22.520;2022-11-12T02:52:27;11.40;1.00
20400;DHT22;10359;53.596;22.520;2022-11-12T02:54:56;11.50;1.00
20400;DHT22;10359;53.596;22.520;2022-11-12T02:57:27;11.50;1.00
20400;DHT22;10359;53.596;22.520;2022-11-12T02:59:57;11.40;1.00
20400;DHT22;10359;53.596;22.520;2022-11-12T03:02:26;11.40;1.00
20400;DHT22;10359;53.596;22.520;2022-11-12T03:04:57;11.40;1.00
20400;DHT22;10359;53.596;22.520;2022-11-12T03:07:27;11.40;1.00
20400;DHT22;10359;53.596;22.520;2022-11-12T03:09:57;11.30;1.00
20400;DHT22;10359;53.596;22.520;2022-11-12T03:12:29;11.30;1.00
20400;DHT22;10359;53.596;22.520;2022-11-12T03:14:59;11.30;1.00
20400;DHT22;10359;53.596;22.520;2022-11-12T03:17:28;11.30;1.00
20400;DHT22;10359;53.596;22.520;2022-11-12T03:19:58;11.40;1.00
20400;DHT22;10359;53.596;22.520;2022-11-12T03:22:27;11.30;1.00
20400;DHT22;10359;53.596;22.520;2022-11-12T03:24:58;11.30;1.00
20400;DHT22;10359;53.596;22.520;2022-11-12T03:27:30;11.30;1.00
20400;DHT22;10359;53.596;22.520;2022-11-12T03:30:00;11.30;1.00
20400;DHT22;10359;53.596;22.520;2022-11-12T03:32:29;11.40;1.00
20400;DHT22;10359;53.596;22.520;2022-11-12T03:34:59;11.40;1.00
20400;DHT22;10359;53.596;22.520;2022-11-12T03:37:28;11.40;1.00
20400;DHT22;10359;53.596;22.520;2022-11-12T03:39:57;11.40;1.00
20400;DHT22;10359;53.596;22.520;2022-11-12T03:42:26;11.40;1.00
20400;DHT22;10359;53.596;22.520;2022-11-12T03:44:58;11.40;1.00
20400;DHT22;10359;53.596;22.520;2022-11-12T03:47:27;11.40;1.00
20400;DHT22;10359;53.596;22.520;2022-11-12T03:49:57;11.40;1.00
20400;DHT22;10359;53.596;22.520;2022-11-12T03:52:26;11.30;1.00
20400;DHT22;10359;53.596;22.520;2022-11-12T03:54:55;11.40;1.00
20400;DHT22;10359;53.596;22.520;2022-11-12T03:57:26;11.40;1.00
20400;DHT22;10359;53.596;22.520;2022-11-12T03:59:56;11.40;1.00
20400;DHT22;10359;53.596;22.520;2022-11-12T04:02:27;11.40;1.00
20400;DHT22;10359;53.596;22.520;2022-11-12T04:05:02;11.40;1.00
20400;DHT22;10359;53.596;22.520;2022-11-12T04:07:48;11.40;1.00
20400;DHT22;10359;53.596;22.520;2022-11-12T04:10:35;11.30;1.00
20400;DHT22;10359;53.596;22.520;2022-11-12T04:13:05;11.30;1.00
20400;DHT22;10359;53.596;22.520;2022-11-12T04:15:52;11.40;1.00
20400;DHT22;10359;53.596;22.520;2022-11-12T04:18:36;11.40;1.00
20400;DHT22;10359;53.596;22.520;2022-11-12T04:21:19;11.40;1.00
20400;DHT22;10359;53.596;22.520;2022-11-12T04:24:05;11.40;1.00
20400;DHT22;10359;53.596;22.520;2022-11-12T04:26:34;11.40;1.00
20400;DHT22;10359;53.596;22.520;2022-11-12T04:29:03;11.40;1.00
20400;DHT22;10359;53.596;22.520;2022-11-12T04:31:49;11.50;1.00
20400;DHT22;10359;53.596;22.520;2022-11-12T04:34:20;11.40;1.00
20400;DHT22;10359;53.596;22.520;2022-11-12T04:36:58;11.40;1.00
20400;DHT22;10359;53.596;22.520;2022-11-12T04:39:27;11.30;1.00
20400;DHT22;10359;53.596;22.520;2022-11-12T04:41:57;11.40;1.00
20400;DHT22;10359;53.596;22.520;2022-11-12T04:44:43;11.30;1.00
20400;DHT22;10359;53.596;22.520;2022-11-12T04:47:30;11.30;1.00
20400;DHT22;10359;53.596;22.520;2022-11-12T04:50:02;11.30;1.00
20400;DHT22;10359;53.596;22.520;2022-11-12T04:52:33;11.20;1.00
20400;DHT22;10359;53.596;22.520;2022-11-12T04:55:03;11.30;1.00
20400;DHT22;10359;53.596;22.520;2022-11-12T04:57:32;11.30;1.00
20400;DHT22;10359;53.596;22.520;2022-11-12T05:00:02;11.40;1.00
20400;DHT22;10359;53.596;22.520;2022-11-12T05:02:31;11.40;1.00
20400;DHT22;10359;53.596;22.520;2022-11-12T05:05:02;11.30;1.00
20400;DHT22;10359;53.596;22.520;2022-11-12T05:07:31;11.40;1.00
20400;DHT22;10359;53.596;22.520;2022-11-12T05:10:01;11.30;1.00
20400;DHT22;10359;53.596;22.520;2022-11-12T05:12:30;11.40;1.00
20400;DHT22;10359;53.596;22.520;2022-11-12T05:14:59;11.40;1.00
20400;DHT22;10359;53.596;22.520;2022-11-12T05:17:29;11.40;1.00
20400;DHT22;10359;53.596;22.520;2022-11-12T05:19:58;11.40;1.00
20400;DHT22;10359;53.596;22.520;2022-11-12T05:22:29;11.50;1.00
20400;DHT22;10359;53.596;22.520;2022-11-12T05:25:12;11.50;1.00
20400;DHT22;10359;53.596;22.520;2022-11-12T05:27:41;11.50;1.00
20400;DHT22;10359;53.596;22.520;2022-11-12T05:30:11;11.50;1.00
20400;DHT22;10359;53.596;22.520;2022-11-12T05:32:40;11.50;1.00
20400;DHT22;10359;53.596;22.520;2022-11-12T05:35:09;11.50;1.00
20400;DHT22;10359;53.596;22.520;2022-11-12T05:37:40;11.40;1.00
20400;DHT22;10359;53.596;22.520;2022-11-12T05:40:09;11.30;1.00
20400;DHT22;10359;53.596;22.520;2022-11-12T05:42:39;11.40;1.00
20400;DHT22;10359;53.596;22.520;2022-11-12T05:45:11;11.40;1.00
20400;DHT22;10359;53.596;22.520;2022-11-12T05:47:40;11.40;1.00
20400;DHT22;10359;53.596;22.520;2022-11-12T05:50:11;11.40;1.00
20400;DHT22;10359;53.596;22.520;2022-11-12T05:52:41;11.40;1.00
20400;DHT22;10359;53.596;22.520;2022-11-12T05:55:11;11.40;1.00
20400;DHT22;10359;53.596;22.520;2022-11-12T05:57:40;11.40;99.90
20400;DHT22;10359;53.596;22.520;2022-11-12T06:00:11;11.40;1.00
20400;DHT22;10359;53.596;22.520;2022-11-12T06:02:42;11.40;1.00
20400;DHT22;10359;53.596;22.520;2022-11-12T06:05:13;11.40;1.00
20400;DHT22;10359;53.596;22.520;2022-11-12T06:07:45;11.30;1.00
20400;DHT22;10359;53.596;22.520;2022-11-12T06:10:19;11.40;1.00
20400;DHT22;10359;53.596;22.520;2022-11-12T06:13:18;11.30;1.00
20400;DHT22;10359;53.596;22.520;2022-11-12T06:15:48;11.40;1.00
20400;DHT22;10359;53.596;22.520;2022-11-12T06:18:18;11.40;99.90
20400;DHT22;10359;53.596;22.520;2022-11-12T06:20:48;11.50;99.90
20400;DHT22;10359;53.596;22.520;2022-11-12T06:23:39;11.40;99.90
20400;DHT22;10359;53.596;22.520;2022-11-12T06:26:09;11.50;99.90
20400;DHT22;10359;53.596;22.520;2022-11-12T06:28:37;11.50;99.90
20400;DHT22;10359;53.596;22.520;2022-11-12T06:31:07;11.50;99.90
20400;DHT22;10359;53.596;22.520;2022-11-12T06:33:36;11.50;99.90
20400;DHT22;10359;53.596;22.520;2022-11-12T06:36:07;11.50;99.90
20400;DHT22;10359;53.596;22.520;2022-11-12T06:38:39;11.50;99.90
20400;DHT22;10359;53.596;22.520;2022-11-12T06:41:10;11.60;99.90
20400;DHT22;10359;53.596;22.520;2022-11-12T06:43:40;11.60;99.90
20400;DHT22;10359;53.596;22.520;2022-11-12T06:46:12;11.50;99.90
20400;DHT22;10359;53.596;22.520;2022-11-12T06:48:42;11.60;99.90
20400;DHT22;10359;53.596;22.520;2022-11-12T06:51:16;11.50;99.90
20400;DHT22;10359;53.596;22.520;2022-11-12T06:53:48;11.60;99.90
20400;DHT22;10359;53.596;22.520;2022-11-12T06:56:18;11.60;1.00
20400;DHT22;10359;53.596;22.520;2022-11-12T06:58:49;11.50;99.90
20400;DHT22;10359;53.596;22.520;2022-11-12T07:01:18;11.60;99.90
20400;DHT22;10359;53.596;22.520;2022-11-12T07:03:50;11.60;99.90
20400;DHT22;10359;53.596;22.520;2022-11-12T07:06:20;11.50;99.90
20400;DHT22;10359;53.596;22.520;2022-11-12T07:08:51;11.60;99.90
20400;DHT22;10359;53.596;22.520;2022-11-12T07:11:21;11.60;99.90
20400;DHT22;10359;53.596;22.520;2022-11-12T07:13:50;11.60;99.90
20400;DHT22;10359;53.596;22.520;2022-11-12T07:16:20;11.60;99.90
20400;DHT22;10359;53.596;22.520;2022-11-12T07:18:50;11.60;99.90
20400;DHT22;10359;53.596;22.520;2022-11-12T07:21:19;11.60;99.90
20400;DHT22;10359;53.596;22.520;2022-11-12T07:23:54;11.60;99.90
20400;DHT22;10359;53.596;22.520;2022-11-12T07:26:27;11.50;99.90
20400;DHT22;10359;53.596;22.520;2022-11-12T07:29:20;11.70;99.90
20400;DHT22;10359;53.596;22.520;2022-11-12T07:32:15;11.70;99.90
20400;DHT22;10359;53.596;22.520;2022-11-12T07:34:43;11.60;99.90
20400;DHT22;10359;53.596;22.520;2022-11-12T07:37:13;11.60;99.90
20400;DHT22;10359;53.596;22.520;2022-11-12T07:39:49;11.60;99.90
20400;DHT22;10359;53.596;22.520;2022-11-12T07:42:18;11.60;99.90
20400;DHT22;10359;53.596;22.520;2022-11-12T07:44:47;11.60;99.90
20400;DHT22;10359;53.596;22.520;2022-11-12T07:47:16;11.60;99.90
20400;DHT22;10359;53.596;22.520;2022-11-12T07:49:45;11.50;99.90
20400;DHT22;10359;53.596;22.520;2022-11-12T07:52:15;11.60;99.90
20400;DHT22;10359;53.596;22.520;2022-11-12T07:54:47;11.50;99.90
20400;DHT22;10359;53.596;22.520;2022-11-12T07:57:17;11.50;99.90
20400;DHT22;10359;53.596;22.520;2022-11-12T07:59:47;11.50;99.90
20400;DHT22;10359;53.596;22.520;2022-11-12T08:02:16;11.50;99.90
20400;DHT22;10359;53.596;22.520;2022-11-12T08:04:46;11.50;99.90
20400;DHT22;10359;53.596;22.520;2022-11-12T08:07:15;11.50;99.90
20400;DHT22;10359;53.596;22.520;2022-11-12T08:09:45;11.40;99.90
20400;DHT22;10359;53.596;22.520;2022-11-12T08:12:18;11.40;99.90
20400;DHT22;10359;53.596;22.520;2022-11-12T08:14:48;11.50;99.90
20400;DHT22;10359;53.596;22.520;2022-11-12T08:17:18;11.50;99.90
20400;DHT22;10359;53.596;22.520;2022-11-12T08:19:47;11.50;99.90
20400;DHT22;10359;53.596;22.520;2022-11-12T08:22:21;11.60;99.90
20400;DHT22;10359;53.596;22.520;2022-11-12T08:24:52;11.70;99.90
20400;DHT22;10359;53.596;22.520;2022-11-12T08:27:24;11.70;99.90
20400;DHT22;10359;53.596;22.520;2022-11-12T08:29:57;11.70;99.90
20400;DHT22;10359;53.596;22.520;2022-11-12T08:32:35;11.70;99.90
20400;DHT22;10359;53.596;22.520;2022-11-12T08:35:08;11.70;99.90
20400;DHT22;10359;53.596;22.520;2022-11-12T08:37:41;11.60;99.90
20400;DHT22;10359;53.596;22.520;2022-11-12T08:40:12;11.60;99.90
20400;DHT22;10359;53.596;22.520;2022-11-12T08:42:44;11.50;99.90
20400;DHT22;10359;53.596;22.520;2022-11-12T08:45:15;11.60;99.90
20400;DHT22;10359;53.596;22.520;2022-11-12T08:47:45;11.60;99.90
20400;DHT22;10359;53.596;22.520;2022-11-12T08:50:16;11.70;99.90
20400;DHT22;10359;53.596;22.520;2022-11-12T08:52:45;11.70;99.90
20400;DHT22;10359;53.596;22.520;2022-11-12T08:55:15;11.70;99.90
20400;DHT22;10359;53.596;22.520;2022-11-12T08:57:45;11.70;99.90
20400;DHT22;10359;53.596;22.520;2022-11-12T09:00:17;11.70;99.90
20400;DHT22;10359;53.596;22.520;2022-11-12T09:02:46;11.70;99.90
20400;DHT22;10359;53.596;22.520;2022-11-12T09:05:16;11.70;99.90
20400;DHT22;10359;53.596;22.520;2022-11-12T09:07:46;11.60;99.90
20400;DHT22;10359;53.596;22.520;2022-11-12T09:10:17;11.60;99.90
20400;DHT22;10359;53.596;22.520;2022-11-12T09:12:51;11.60;99.90
20400;DHT22;10359;53.596;22.520;2022-11-12T09:15:23;11.50;99.90
20400;DHT22;10359;53.596;22.520;2022-11-12T09:18:11;11.60;99.90
20400;DHT22;10359;53.596;22.520;2022-11-12T09:20:41;11.60;99.90
20400;DHT22;10359;53.596;22.520;2022-11-12T09:23:11;11.60;99.90
20400;DHT22;10359;53.596;22.520;2022-11-12T09:25:41;11.50;99.90
20400;DHT22;10359;53.596;22.520;2022-11-12T09:28:13;11.50;99.90
20400;DHT22;10359;53.596;22.520;2022-11-12T09:30:44;11.60;99.90
20400;DHT22;10359;53.596;22.520;2022-11-12T09:33:14;11.70;99.90
20400;DHT22;10359;53.596;22.520;2022-11-12T09:35:44;11.70;99.90
20400;DHT22;10359;53.596;22.520;2022-11-12T09:38:20;11.80;99.90
20400;DHT22;10359;53.596;22.520;2022-11-12T09:41:18;11.80;99.90
20400;DHT22;10359;53.596;22.520;2022-11-12T09:43:52;11.90;99.90
20400;DHT22;10359;53.596;22.520;2022-11-12T09:46:30;11.90;99.90
20400;DHT22;10359;53.596;22.520;2022-11-12T09:49:06;12.00;99.90
20400;DHT22;10359;53.596;22.520;2022-11-12T09:51:41;12.00;99.90
20400;DHT22;10359;53.596;22.520;2022-11-12T09:54:26;12.10;99.90
20400;DHT22;10359;53.596;22.520;2022-11-12T09:56:57;12.10;99.90
20400;DHT22;10359;53.596;22.520;2022-11-12T09:59:31;12.10;99.90
20400;DHT22;10359;53.596;22.520;2022-11-12T10:02:10;12.20;99.90
20400;DHT22;10359;53.596;22.520;2022-11-12T10:04:58;12.10;99.90
20400;DHT22;10359;53.596;22.520;2022-11-12T10:07:39;12.20;99.90
20400;DHT22;10359;53.596;22.520;2022-11-12T10:10:14;12.20;99.90
20400;DHT22;10359;53.596;22.520;2022-11-12T10:13:02;12.30;99.90
20400;DHT22;10359;53.596;22.520;2022-11-12T10:15:45;12.40;99.90
20400;DHT22;10359;53.596;22.520;2022-11-12T10:18:42;12.30;99.90
20400;DHT22;10359;53.596;22.520;2022-11-12T10:21:23;12.40;99.90
20400;DHT22;10359;53.596;22.520;2022-11-12T10:23:59;12.20;99.90
20400;DHT22;10359;53.596;22.520;2022-11-12T10:26:30;12.40;99.90
20400;DHT22;10359;53.596;22.520;2022-11-12T10:29:06;12.40;99.90
20400;DHT22;10359;53.596;22.520;2022-11-12T10:31:42;12.40;99.90
20400;DHT22;10359;53.596;22.520;2022-11-12T10:34:17;12.40;99.90
20400;DHT22;10359;53.596;22.520;2022-11-12T10:36:50;12.50;99.90
20400;DHT22;10359;53.596;22.520;2022-11-12T10:39:32;12.50;99.90
20400;DHT22;10359;53.596;22.520;2022-11-12T10:42:06;12.50;99.90
20400;DHT22;10359;53.596;22.520;2022-11-12T10:44:35;12.40;99.90
20400;DHT22;10359;53.596;22.520;2022-11-12T10:47:27;12.40;99.90
20400;DHT22;10359;53.596;22.520;2022-11-12T10:50:17;12.40;99.90
20400;DHT22;10359;53.596;22.520;2022-11-12T10:52:56;12.30;99.90
20400;DHT22;10359;53.596;22.520;2022-11-12T10:55:27;12.40;99.90
20400;DHT22;10359;53.596;22.520;2022-11-12T10:58:13;12.50;99.90
20400;DHT22;10359;53.596;22.520;2022-11-12T11:01:00;12.70;99.90
20400;DHT22;10359;53.596;22.520;2022-11-12T11:03:34;12.60;99.90
20400;DHT22;10359;53.596;22.520;2022-11-12T11:06:05;12.60;99.90
20400;DHT22;10359;53.596;22.520;2022-11-12T11:08:37;12.60;99.90
20400;DHT22;10359;53.596;22.520;2022-11-12T11:11:23;12.60;99.90
20400;DHT22;10359;53.596;22.520;2022-11-12T11:13:54;12.70;99.90
20400;DHT22;10359;53.596;22.520;2022-11-12T11:16:25;12.80;99.90
20400;DHT22;10359;53.596;22.520;2022-11-12T11:18:59;12.80;99.90
20400;DHT22;10359;53.596;22.520;2022-11-12T11:21:49;12.60;99.90
20400;DHT22;10359;53.596;22.520;2022-11-12T11:24:35;12.70;99.90
20400;DHT22;10359;53.596;22.520;2022-11-12T11:27:17;12.90;99.90
20400;DHT22;10359;53.596;22.520;2022-11-12T11:30:07;12.90;99.90
20400;DHT22;10359;53.596;22.520;2022-11-12T11:32:55;12.80;99.90
20400;DHT22;10359;53.596;22.520;2022-11-12T11:35:37;12.70;99.90
20400;DHT22;10359;53.596;22.520;2022-11-12T11:38:20;12.70;99.90
20400;DHT22;10359;53.596;22.520;2022-11-12T11:41:05;12.70;99.90
20400;DHT22;10359;53.596;22.520;2022-11-12T11:43:51;12.80;99.90
20400;DHT22;10359;53.596;22.520;2022-11-12T11:46:35;12.80;99.90
20400;DHT22;10359;53.596;22.520;2022-11-12T11:49:34;12.80;99.90
20400;DHT22;10359;53.596;22.520;2022-11-12T11:52:20;12.70;99.90
20400;DHT22;10359;53.596;22.520;2022-11-12T11:55:03;12.70;99.90
20400;DHT22;10359;53.596;22.520;2022-11-12T11:57:42;12.70;99.90
20400;DHT22;10359;53.596;22.520;2022-11-12T12:00:17;12.70;99.90
20400;DHT22;10359;53.596;22.520;2022-11-12T12:03:12;12.60;99.90
20400;DHT22;10359;53.596;22.520;2022-11-12T12:05:49;12.60;99.90
20400;DHT22;10359;53.596;22.520;2022-11-12T12:08:27;12.50;99.90
20400;DHT22;10359;53.596;22.520;2022-11-12T12:11:03;12.50;99.90
20400;DHT22;10359;53.596;22.520;2022-11-12T12:13:48;12.40;99.90
20400;DHT22;10359;53.596;22.520;2022-11-12T12:16:37;12.50;99.90
20400;DHT22;10359;53.596;22.520;2022-11-12T12:19:18;12.40;99.90
20400;DHT22;10359;53.596;22.520;2022-11-12T12:21:53;12.40;99.90
20400;DHT22;10359;53.596;22.520;2022-11-12T12:24:28;12.50;99.90
20400;DHT22;10359;53.596;22.520;2022-11-12T12:27:01;12.50;99.90
20400;DHT22;10359;53.596;22.520;2022-11-12T12:29:35;12.40;99.90
20400;DHT22;10359;53.596;22.520;2022-11-12T12:32:11;12.40;99.90
20400;DHT22;10359;53.596;22.520;2022-11-12T12:34:54;12.40;99.90
20400;DHT22;10359;53.596;22.520;2022-11-12T12:37:33;12.30;99.90
20400;DHT22;10359;53.596;22.520;2022-11-12T12:40:12;12.40;99.90
20400;DHT22;10359;53.596;22.520;2022-11-12T12:42:49;12.10;99.90
20400;DHT22;10359;53.596;22.520;2022-11-12T12:45:31;12.20;99.90
20400;DHT22;10359;53.596;22.520;2022-11-12T12:48:06;12.20;99.90
20400;DHT22;10359;53.596;22.520;2022-11-12T12:50:38;12.20;99.90
20400;DHT22;10359;53.596;22.520;2022-11-12T12:53:17;12.20;99.90
20400;DHT22;10359;53.596;22.520;2022-11-12T12:55:49;12.20;99.90
20400;DHT22;10359;53.596;22.520;2022-11-12T12:58:25;12.20;99.90
20400;DHT22;10359;53.596;22.520;2022-11-12T13:01:00;12.20;99.90
20400;DHT22;10359;53.596;22.520;2022-11-12T13:04:00;12.20;99.90
20400;DHT22;10359;53.596;22.520;2022-11-12T13:06:32;12.20;99.90
20400;DHT22;10359;53.596;22.520;2022-11-12T13:09:05;12.10;99.90
20400;DHT22;10359;53.596;22.520;2022-11-12T13:11:51;12.20;99.90
20400;DHT22;10359;53.596;22.520;2022-11-12T13:17:48;12.20;99.90
20400;DHT22;10359;53.596;22.520;2022-11-12T13:20:36;12.10;99.90
20400;DHT22;10359;53.596;22.520;2022-11-12T13:23:42;12.00;99.90
20400;DHT22;10359;53.596;22.520;2022-11-12T13:27:00;12.00;99.90
20400;DHT22;10359;53.596;22.520;2022-11-12T13:29:40;12.00;99.90
20400;DHT22;10359;53.596;22.520;2022-11-12T13:32:36;12.00;99.90
20400;DHT22;10359;53.596;22.520;2022-11-12T13:35:30;12.00;99.90
20400;DHT22;10359;53.596;22.520;2022-11-12T13:38:10;12.10;99.90
20400;DHT22;10359;53.596;22.520;2022-11-12T13:40:44;12.10;99.90
20400;DHT22;10359;53.596;22.520;2022-11-12T13:43:30;12.10;99.90
20400;DHT22;10359;53.596;22.520;2022-11-12T13:49:05;12.10;99.90
20400;DHT22;10359;53.596;22.520;2022-11-12T13:51:38;12.10;99.90
20400;DHT22;10359;53.596;22.520;2022-11-12T13:54:28;12.00;99.90
20400;DHT22;10359;53.596;22.520;2022-11-12T13:57:24;12.10;99.90
20400;DHT22;10359;53.596;22.520;2022-11-12T14:00:28;12.00;99.90
20400;DHT22;10359;53.596;22.520;2022-11-12T14:02:59;12.00;99.90
20400;DHT22;10359;53.596;22.520;2022-11-12T14:05:32;11.90;99.90
20400;DHT22;10359;53.596;22.520;2022-11-12T14:14:06;11.80;99.90
20400;DHT22;10359;53.596;22.520;2022-11-12T14:16:51;11.70;99.90
20400;DHT22;10359;53.596;22.520;2022-11-12T14:19:54;11.70;99.90
20400;DHT22;10359;53.596;22.520;2022-11-12T14:22:37;11.70;99.90
20400;DHT22;10359;53.596;22.520;2022-11-12T14:25:14;11.60;99.90
20400;DHT22;10359;53.596;22.520;2022-11-12T14:27:46;11.60;99.90
20400;DHT22;10359;53.596;22.520;2022-11-12T14:30:19;11.70;99.90
20400;DHT22;10359;53.596;22.520;2022-11-12T14:32:56;11.70;99.90
20400;DHT22;10359;53.596;22.520;2022-11-12T14:35:29;11.60;99.90
20400;DHT22;10359;53.596;22.520;2022-11-12T14:38:10;11.50;99.90
20400;DHT22;10359;53.596;22.520;2022-11-12T14:40:47;11.50;99.90
20400;DHT22;10359;53.596;22.520;2022-11-12T14:43:24;11.50;99.90
20400;DHT22;10359;53.596;22.520;2022-11-12T14:45:56;11.50;99.90
20400;DHT22;10359;53.596;22.520;2022-11-12T14:48:27;11.40;99.90
20400;DHT22;10359;53.596;22.520;2022-11-12T14:51:00;11.40;99.90
20400;DHT22;10359;53.596;22.520;2022-11-12T14:53:33;11.50;99.90
20400;DHT22;10359;53.596;22.520;2022-11-12T14:56:08;11.50;99.90
20400;DHT22;10359;53.596;22.520;2022-11-12T14:58:41;11.50;99.90
20400;DHT22;10359;53.596;22.520;2022-11-12T15:01:19;11.50;99.90
20400;DHT22;10359;53.596;22.520;2022-11-12T15:04:20;11.40;99.90
20400;DHT22;10359;53.596;22.520;2022-11-12T15:06:52;11.50;99.90
20400;DHT22;10359;53.596;22.520;2022-11-12T15:09:36;11.40;99.90
20400;DHT22;10359;53.596;22.520;2022-11-12T15:12:10;11.50;99.90
20400;DHT22;10359;53.596;22.520;2022-11-12T15:14:40;11.60;99.90
20400;DHT22;10359;53.596;22.520;2022-11-12T15:17:22;11.50;99.90
20400;DHT22;10359;53.596;22.520;2022-11-12T15:20:02;11.50;99.90
20400;DHT22;10359;53.596;22.520;2022-11-12T15:22:32;11.50;99.90
20400;DHT22;10359;53.596;22.520;2022-11-12T15:25:17;11.60;99.90
20400;DHT22;10359;53.596;22.520;2022-11-12T15:27:53;11.60;99.90
20400;DHT22;10359;53.596;22.520;2022-11-12T15:30:24;11.50;99.90
20400;DHT22;10359;53.596;22.520;2022-11-12T15:33:07;11.60;99.90
20400;DHT22;10359;53.596;22.520;2022-11-12T15:35:38;11.50;99.90
20400;DHT22;10359;53.596;22.520;2022-11-12T15:38:14;11.50;99.90
20400;DHT22;10359;53.596;22.520;2022-11-12T15:40:46;11.50;99.90
20400;DHT22;10359;53.596;22.520;2022-11-12T15:43:26;11.50;99.90
20400;DHT22;10359;53.596;22.520;2022-11-12T15:45:56;11.50;99.90
20400;DHT22;10359;53.596;22.520;2022-11-12T15:48:26;11.60;99.90
20400;DHT22;10359;53.596;22.520;2022-11-12T15:50:57;11.60;99.90
20400;DHT22;10359;53.596;22.520;2022-11-12T15:53:27;11.60;99.90
20400;DHT22;10359;53.596;22.520;2022-11-12T15:55:57;11.60;99.90
20400;DHT22;10359;53.596;22.520;2022-11-12T15:58:31;11.50;99.90
20400;DHT22;10359;53.596;22.520;2022-11-12T16:01:02;11.60;99.90
20400;DHT22;10359;53.596;22.520;2022-11-12T16:03:34;11.50;99.90
20400;DHT22;10359;53.596;22.520;2022-11-12T16:06:08;11.50;99.90
20400;DHT22;10359;53.596;22.520;2022-11-12T16:08:38;11.50;99.90
20400;DHT22;10359;53.596;22.520;2022-11-12T16:11:09;11.50;99.90
20400;DHT22;10359;53.596;22.520;2022-11-12T16:14:00;11.40;99.90
20400;DHT22;10359;53.596;22.520;2022-11-12T16:16:31;11.40;99.90
20400;DHT22;10359;53.596;22.520;2022-11-12T16:19:00;11.50;99.90
20400;DHT22;10359;53.596;22.520;2022-11-12T16:21:32;11.50;99.90
20400;DHT22;10359;53.596;22.520;2022-11-12T16:24:01;11.40;99.90